createdAt,value
2023-01-19T00:01:07.851Z,85.94
2023-01-19T00:03:36.987Z,85.11
2023-01-19T00:06:09.141Z,85.56
2023-01-19T00:08:37.765Z,85.19
2023-01-19T00:11:06.373Z,85.56
2023-01-19T00:13:34.957Z,85.36
2023-01-19T00:16:05.332Z,85.41
2023-01-19T00:18:33.815Z,86.40
2023-01-19T00:21:02.247Z,85.88
2023-01-19T00:23:30.650Z,86.03
2023-01-19T00:25:59.066Z,85.46
2023-01-19T00:28:27.541Z,85.83
2023-01-19T00:30:55.957Z,86.25
2023-01-19T00:33:24.357Z,86.88
2023-01-19T00:35:54.968Z,87.20
2023-01-19T00:38:25.709Z,87.80
2023-01-19T00:40:54.160Z,87.81
2023-01-19T00:43:21.656Z,88.20
2023-01-19T00:45:50.154Z,87.71
2023-01-19T00:48:18.590Z,87.96
2023-01-19T00:50:47.230Z,87.59
2023-01-19T00:53:15.847Z,88.20
2023-01-19T00:55:44.240Z,87.74
2023-01-19T00:58:12.877Z,87.11
2023-01-19T01:00:41.397Z,87.29
2023-01-19T01:03:09.889Z,88.68
2023-01-19T01:05:41.084Z,88.43
2023-01-19T01:08:09.520Z,88.16
2023-01-19T01:10:38.135Z,87.26
2023-01-19T01:13:20.955Z,87.09
2023-01-19T01:15:54.747Z,88.01
2023-01-19T01:18:23.753Z,87.97
2023-01-19T01:20:53.925Z,88.20
2023-01-19T01:23:23.740Z,88.46
2023-01-19T01:25:52.208Z,87.44
2023-01-19T01:28:20.658Z,87.56
2023-01-19T01:30:49.471Z,87.33
2023-01-19T01:33:40.052Z,86.83
2023-01-19T01:36:06.389Z,86.24
2023-01-19T01:38:34.870Z,86.92
2023-01-19T01:41:03.398Z,86.37
2023-01-19T01:44:38.119Z,86.69
2023-01-19T01:47:07.236Z,86.62
2023-01-19T01:49:35.609Z,86.52
2023-01-19T01:52:04.553Z,86.13
2023-01-19T01:54:34.909Z,85.96
2023-01-19T01:57:12.247Z,85.08
2023-01-19T01:59:46.912Z,86.09
2023-01-19T02:06:22.358Z,85.43
2023-01-19T02:09:25.155Z,86.25
2023-01-19T02:12:10.854Z,85.75
2023-01-19T02:14:39.384Z,85.67
2023-01-19T02:17:08.069Z,85.79
2023-01-19T02:19:46.595Z,85.33
2023-01-19T02:22:25.471Z,85.51
2023-01-19T02:24:54.268Z,85.15
2023-01-19T02:27:22.755Z,84.80
2023-01-19T02:29:51.369Z,84.79
2023-01-19T02:32:19.777Z,84.35
2023-01-19T02:34:48.277Z,84.29
2023-01-19T02:37:18.760Z,84.38
2023-01-19T02:40:10.661Z,84.55
2023-01-19T02:42:51.596Z,84.34
2023-01-19T02:45:23.382Z,84.90
2023-01-19T02:47:53.540Z,85.90
2023-01-19T02:50:46.976Z,85.37
2023-01-19T02:53:48.761Z,85.75
2023-01-19T02:56:26.592Z,83.94
2023-01-19T02:59:23.395Z,84.39
2023-01-19T03:01:57.586Z,85.13
2023-01-19T03:04:56.487Z,83.42
2023-01-19T03:07:29.000Z,83.01
2023-01-19T03:10:42.867Z,83.76
2023-01-19T03:13:54.568Z,83.45
2023-01-19T03:16:55.198Z,84.51
2023-01-19T03:19:45.082Z,83.49
2023-01-19T03:22:33.873Z,83.22
2023-01-19T03:25:04.239Z,83.76
2023-01-19T03:27:40.759Z,83.85
2023-01-19T03:30:18.706Z,83.27
2023-01-19T03:32:53.413Z,82.35
2023-01-19T03:35:26.105Z,83.30
2023-01-19T03:37:58.293Z,83.96
2023-01-19T03:40:32.568Z,83.18
2023-01-19T03:43:02.531Z,82.62
2023-01-19T03:45:33.802Z,83.32
2023-01-19T03:48:02.261Z,82.71
2023-01-19T03:50:32.154Z,83.13
2023-01-19T03:53:09.385Z,82.55
2023-01-19T03:55:40.388Z,83.00
2023-01-19T03:58:09.050Z,81.70
2023-01-19T04:00:37.817Z,82.30
2023-01-19T04:03:16.309Z,81.40
2023-01-19T04:05:45.743Z,83.08
2023-01-19T04:08:14.408Z,81.64
2023-01-19T04:10:43.096Z,80.49
2023-01-19T04:13:11.610Z,81.27
2023-01-19T04:15:40.158Z,81.56
2023-01-19T04:18:09.750Z,81.10
2023-01-19T04:20:39.010Z,80.72
2023-01-19T04:23:07.507Z,80.57
2023-01-19T04:25:38.009Z,79.82
2023-01-19T04:28:07.401Z,79.80
2023-01-19T04:30:35.988Z,79.77
2023-01-19T04:33:04.494Z,79.86
2023-01-19T04:35:34.307Z,79.53
2023-01-19T04:38:02.848Z,80.44
2023-01-19T04:40:31.888Z,79.52
2023-01-19T04:43:00.614Z,79.97
2023-01-19T04:45:29.399Z,79.59
2023-01-19T04:47:58.033Z,80.28
2023-01-19T04:50:26.704Z,80.12
2023-01-19T04:52:55.130Z,80.56
2023-01-19T04:55:23.595Z,80.94
2023-01-19T04:57:52.091Z,79.50
2023-01-19T05:00:21.001Z,80.43
2023-01-19T05:02:49.577Z,80.21
2023-01-19T05:05:18.340Z,80.20
2023-01-19T05:07:47.122Z,80.05
2023-01-19T05:10:16.015Z,80.67
2023-01-19T05:12:44.491Z,81.89
2023-01-19T05:15:13.294Z,81.83
2023-01-19T05:17:41.932Z,82.31
2023-01-19T05:20:15.735Z,82.42
2023-01-19T05:22:49.489Z,81.39
2023-01-19T05:25:18.099Z,81.22
2023-01-19T05:27:46.873Z,82.24
2023-01-19T05:30:16.023Z,81.90
2023-01-19T05:32:44.536Z,81.80
2023-01-19T05:35:13.539Z,81.24
2023-01-19T05:37:42.111Z,81.80
2023-01-19T05:40:11.329Z,82.44
2023-01-19T05:42:40.042Z,81.78
2023-01-19T05:45:09.140Z,81.67
2023-01-19T05:47:37.738Z,81.84
2023-01-19T05:50:06.836Z,81.46
2023-01-19T05:52:35.325Z,82.19
2023-01-19T06:03:16.355Z,82.46
2023-01-19T06:05:44.824Z,83.62
2023-01-19T06:08:13.377Z,83.52
2023-01-19T06:10:42.099Z,82.40
2023-01-19T06:13:11.263Z,82.55
2023-01-19T06:15:39.972Z,81.86
2023-01-19T06:18:08.440Z,82.73
2023-01-19T06:20:37.804Z,82.59
2023-01-19T06:23:06.608Z,83.10
2023-01-19T06:25:35.159Z,82.96
2023-01-19T06:28:03.691Z,82.10
2023-01-19T06:30:32.205Z,82.29
2023-01-19T06:33:01.088Z,82.53
2023-01-19T06:35:29.769Z,82.59
2023-01-19T06:37:58.269Z,82.87
2023-01-19T06:40:26.985Z,83.15
2023-01-19T06:42:55.443Z,82.86
2023-01-19T06:45:23.946Z,82.66
2023-01-19T06:47:52.601Z,82.53
2023-01-19T06:50:21.105Z,82.83
2023-01-19T06:52:52.367Z,82.37
2023-01-19T06:55:20.819Z,82.81
2023-01-19T06:57:56.905Z,82.83
2023-01-19T07:00:25.558Z,83.34
2023-01-19T07:02:54.177Z,82.88
2023-01-19T07:05:22.949Z,83.37
2023-01-19T07:07:55.954Z,83.12
2023-01-19T07:10:25.239Z,82.75
2023-01-19T07:12:53.892Z,82.59
2023-01-19T07:15:22.673Z,82.92
2023-01-19T07:17:51.236Z,83.44
2023-01-19T07:20:19.785Z,83.08
2023-01-19T07:22:48.955Z,83.24
2023-01-19T07:25:17.608Z,83.40
2023-01-19T07:27:46.176Z,84.14
2023-01-19T07:30:16.136Z,84.65
2023-01-19T07:32:44.748Z,84.81
2023-01-19T07:35:13.248Z,83.44
2023-01-19T07:37:41.740Z,82.98
2023-01-19T07:40:10.917Z,83.37
2023-01-19T07:42:39.449Z,82.68
2023-01-19T07:45:08.399Z,82.93
2023-01-19T07:47:36.916Z,82.87
2023-01-19T07:50:05.714Z,82.20
2023-01-19T07:52:34.208Z,82.90
2023-01-19T07:55:02.878Z,82.85
2023-01-19T07:57:31.513Z,83.12
2023-01-19T08:00:00.089Z,83.63
2023-01-19T08:02:28.618Z,83.16
2023-01-19T08:04:57.258Z,83.44
2023-01-19T08:07:26.294Z,82.80
2023-01-19T08:09:54.797Z,83.36
2023-01-19T08:12:23.307Z,82.54
2023-01-19T08:14:51.850Z,82.79
2023-01-19T08:17:20.590Z,82.57
2023-01-19T08:19:49.037Z,82.75
2023-01-19T08:22:17.488Z,82.63
2023-01-19T08:24:45.741Z,82.16
2023-01-19T08:27:14.236Z,81.99
2023-01-19T08:29:42.675Z,82.46
2023-01-19T08:32:11.608Z,83.35
2023-01-19T08:34:40.226Z,83.71
2023-01-19T08:37:08.676Z,83.66
2023-01-19T08:39:37.102Z,83.94
2023-01-19T08:42:05.628Z,83.62
2023-01-19T08:44:34.181Z,83.14
2023-01-19T08:47:02.803Z,83.19
2023-01-19T08:49:31.351Z,83.50
2023-01-19T08:51:59.940Z,82.80
2023-01-19T08:54:38.168Z,82.89
2023-01-19T08:57:06.694Z,82.77
2023-01-19T08:59:35.890Z,82.93
2023-01-19T09:02:04.424Z,83.87
2023-01-19T09:04:34.602Z,83.02
2023-01-19T09:07:03.057Z,82.42
2023-01-19T09:09:31.619Z,82.64
2023-01-19T09:12:00.057Z,82.61
2023-01-19T09:14:28.587Z,83.16
2023-01-19T09:16:57.443Z,83.54
2023-01-19T09:19:26.270Z,83.37
2023-01-19T09:21:55.622Z,83.22
2023-01-19T09:24:24.255Z,83.27
2023-01-19T09:26:52.730Z,83.50
2023-01-19T09:29:21.328Z,83.84
2023-01-19T09:31:49.861Z,84.67
2023-01-19T09:34:18.426Z,84.15
2023-01-19T09:36:48.615Z,83.45
2023-01-19T09:39:17.117Z,83.11
2023-01-19T09:41:55.645Z,83.48
2023-01-19T09:44:34.153Z,83.22
2023-01-19T09:47:15.683Z,83.07
2023-01-19T09:49:52.490Z,83.31
2023-01-19T09:52:22.355Z,82.00
2023-01-19T09:54:58.241Z,82.04
2023-01-19T09:57:28.299Z,81.04
2023-01-19T09:59:59.827Z,81.64
2023-01-19T10:02:54.428Z,81.07
2023-01-19T10:05:44.788Z,81.40
2023-01-19T10:08:44.306Z,81.25
2023-01-19T10:11:54.003Z,81.80
2023-01-19T10:14:53.344Z,82.14
2023-01-19T10:17:57.421Z,80.78
2023-01-19T10:20:34.588Z,80.32
2023-01-19T10:23:07.212Z,80.26
2023-01-19T10:25:35.802Z,80.57
2023-01-19T10:28:04.715Z,81.16
2023-01-19T10:30:33.445Z,81.25
2023-01-19T10:33:02.515Z,80.81
2023-01-19T10:35:31.646Z,81.79
2023-01-19T10:38:02.539Z,80.81
2023-01-19T10:40:47.809Z,80.30
2023-01-19T10:43:42.137Z,80.59
2023-01-19T10:46:46.324Z,80.10
2023-01-19T10:49:37.815Z,80.71
2023-01-19T10:52:09.268Z,82.75
2023-01-19T10:54:38.947Z,80.51
2023-01-19T10:57:10.806Z,79.48
2023-01-19T10:59:46.147Z,79.39
2023-01-19T11:02:14.768Z,79.33
2023-01-19T11:04:45.086Z,79.92
2023-01-19T11:07:34.251Z,78.79
2023-01-19T11:10:34.946Z,79.14
2023-01-19T11:13:15.871Z,78.86
2023-01-19T11:15:53.138Z,77.90
2023-01-19T11:18:41.713Z,78.16
2023-01-19T11:21:14.875Z,78.84
2023-01-19T11:23:51.078Z,78.35
2023-01-19T11:26:35.463Z,78.38
2023-01-19T11:29:05.335Z,78.04
2023-01-19T11:31:37.482Z,78.78
2023-01-19T11:34:23.536Z,79.68
2023-01-19T11:37:22.845Z,78.72
2023-01-19T11:40:02.931Z,79.18
2023-01-19T11:42:34.618Z,79.78
2023-01-19T11:45:14.621Z,80.36
2023-01-19T11:47:52.440Z,81.27
2023-01-19T11:50:35.110Z,79.85
2023-01-19T11:53:29.490Z,79.93
2023-01-19T11:56:07.073Z,78.69
2023-01-19T11:58:41.163Z,78.75
2023-01-19T12:01:51.677Z,78.95
2023-01-19T12:04:30.713Z,78.93
2023-01-19T12:07:07.589Z,78.24
2023-01-19T12:09:46.126Z,78.41
2023-01-19T12:12:26.428Z,77.70
2023-01-19T12:15:18.457Z,80.80
2023-01-19T12:17:50.992Z,80.65
2023-01-19T12:20:45.013Z,79.50
2023-01-19T12:23:22.251Z,80.89
2023-01-19T12:26:18.935Z,80.17
2023-01-19T12:28:52.588Z,78.36
2023-01-19T12:31:23.449Z,77.48
2023-01-19T12:33:52.794Z,77.11
2023-01-19T12:36:33.400Z,77.38
2023-01-19T12:39:25.238Z,77.24
2023-01-19T12:42:20.439Z,77.13
2023-01-19T12:44:50.085Z,78.84
2023-01-19T12:47:20.266Z,76.69
2023-01-19T12:49:56.625Z,77.12
2023-01-19T12:52:41.572Z,75.39
2023-01-19T12:55:15.890Z,74.79
2023-01-19T12:58:19.035Z,74.89
2023-01-19T13:00:50.542Z,75.39
2023-01-19T13:03:19.006Z,75.36
2023-01-19T13:05:57.384Z,75.52
2023-01-19T13:08:30.059Z,75.41
2023-01-19T13:11:05.081Z,73.60
2023-01-19T13:13:37.201Z,73.60
2023-01-19T13:16:20.582Z,74.36
2023-01-19T13:19:06.599Z,74.60
2023-01-19T13:21:45.429Z,74.27
2023-01-19T13:24:23.360Z,73.82
2023-01-19T13:26:51.749Z,73.76
2023-01-19T13:29:38.621Z,74.09
2023-01-19T13:32:19.340Z,73.94
2023-01-19T13:34:53.738Z,73.40
2023-01-19T13:37:27.173Z,74.03
2023-01-19T13:39:56.635Z,73.82
2023-01-19T13:42:43.016Z,74.16
2023-01-19T13:45:31.209Z,73.50
2023-01-19T13:48:02.726Z,73.35
2023-01-19T13:50:37.646Z,73.81
2023-01-19T13:53:21.214Z,73.90
2023-01-19T13:55:49.719Z,74.39
2023-01-19T13:58:26.242Z,74.21
2023-01-19T14:00:54.822Z,74.40
2023-01-19T14:03:25.127Z,74.47
2023-01-19T14:05:56.201Z,74.33
2023-01-19T14:08:25.713Z,74.33
2023-01-19T14:10:57.100Z,74.24
2023-01-19T14:13:26.872Z,74.49
2023-01-19T14:15:59.880Z,74.72
2023-01-19T14:18:31.876Z,75.00
2023-01-19T14:21:06.061Z,75.22
2023-01-19T14:23:57.317Z,74.96
2023-01-19T14:26:52.068Z,75.02
2023-01-19T14:29:33.241Z,74.94
2023-01-19T14:32:07.788Z,75.60
2023-01-19T14:34:53.913Z,75.69
2023-01-19T14:37:50.441Z,74.68
2023-01-19T14:40:24.461Z,76.08
2023-01-19T14:43:03.162Z,75.90
2023-01-19T14:45:41.515Z,75.70
2023-01-19T14:48:22.312Z,75.28
2023-01-19T14:51:02.693Z,75.56
2023-01-19T14:53:38.348Z,75.26
2023-01-19T14:56:08.555Z,75.13
2023-01-19T14:58:37.319Z,74.97
2023-01-19T15:01:06.384Z,75.42
2023-01-19T15:03:44.120Z,75.13
2023-01-19T15:06:20.878Z,75.00
2023-01-19T15:08:50.352Z,75.14
2023-01-19T15:11:32.671Z,75.09
2023-01-19T15:14:01.713Z,75.85
2023-01-19T15:16:34.046Z,75.28
2023-01-19T15:19:02.705Z,75.66
2023-01-19T15:21:31.227Z,75.79
2023-01-19T15:24:00.429Z,75.46
2023-01-19T15:26:29.392Z,75.66
2023-01-19T15:28:58.059Z,75.79
2023-01-19T15:31:27.732Z,74.55
2023-01-19T15:33:56.323Z,74.76
2023-01-19T15:36:25.465Z,74.52
2023-01-19T15:38:54.069Z,74.87
2023-01-19T15:41:28.101Z,73.81
2023-01-19T15:43:56.736Z,73.88
2023-01-19T15:46:26.416Z,74.57
2023-01-19T15:48:55.267Z,74.83
2023-01-19T15:51:26.708Z,74.68
2023-01-19T15:53:56.625Z,75.13
2023-01-19T15:56:31.596Z,75.38
2023-01-19T15:59:00.707Z,75.57
2023-01-19T16:01:32.178Z,75.62
2023-01-19T16:04:02.851Z,75.61
2023-01-19T16:06:31.888Z,76.07
2023-01-19T16:09:01.842Z,75.95
2023-01-19T16:11:33.464Z,76.61
2023-01-19T16:14:02.452Z,76.15
2023-01-19T16:16:31.008Z,75.47
2023-01-19T16:18:59.654Z,76.83
2023-01-19T16:21:28.403Z,75.93
2023-01-19T16:23:56.966Z,76.14
2023-01-19T16:26:34.995Z,76.16
2023-01-19T16:29:08.701Z,76.17
2023-01-19T16:31:38.280Z,75.57
2023-01-19T16:34:06.903Z,76.30
2023-01-19T16:36:37.731Z,77.53
2023-01-19T16:39:14.662Z,76.59
2023-01-19T16:41:43.978Z,76.02
2023-01-19T16:44:15.353Z,76.26
2023-01-19T16:46:46.945Z,77.44
2023-01-19T16:49:16.441Z,77.31
2023-01-19T16:51:45.615Z,78.69
2023-01-19T16:54:23.368Z,78.77
2023-01-19T16:56:51.991Z,79.15
2023-01-19T16:59:21.229Z,79.81
2023-01-19T17:01:50.946Z,80.20
2023-01-19T17:04:20.663Z,80.46
2023-01-19T17:06:49.932Z,80.13
2023-01-19T17:09:19.120Z,79.45
2023-01-19T17:11:47.935Z,79.46
2023-01-19T17:14:21.780Z,79.43
2023-01-19T17:16:50.791Z,79.51
2023-01-19T17:19:22.035Z,79.44
2023-01-19T17:21:51.352Z,80.02
2023-01-19T17:24:20.274Z,80.05
2023-01-19T17:26:49.502Z,80.03
2023-01-19T17:29:18.733Z,79.82
2023-01-19T17:31:47.463Z,80.31
2023-01-19T17:34:16.237Z,80.30
2023-01-19T17:36:45.153Z,80.09
2023-01-19T17:39:17.010Z,80.67
2023-01-19T17:41:45.695Z,80.38
2023-01-19T17:44:14.291Z,80.06
2023-01-19T17:46:42.815Z,80.25
2023-01-19T17:49:12.034Z,80.08
2023-01-19T17:51:40.629Z,80.23
2023-01-19T17:54:10.824Z,79.90
2023-01-19T17:56:41.439Z,79.45
2023-01-19T17:59:10.389Z,79.49
2023-01-19T18:01:40.496Z,80.44
2023-01-19T18:04:10.070Z,79.59
2023-01-19T18:06:41.414Z,79.96
2023-01-19T18:09:10.242Z,79.94
2023-01-19T18:11:38.877Z,80.84
2023-01-19T18:14:07.549Z,81.29
2023-01-19T18:16:37.148Z,80.90
2023-01-19T18:19:05.789Z,81.10
2023-01-19T18:21:34.542Z,81.03
2023-01-19T18:24:06.203Z,81.23
2023-01-19T18:26:36.445Z,81.63
2023-01-19T18:29:05.419Z,82.15
2023-01-19T18:31:33.950Z,82.27
2023-01-19T18:34:02.439Z,82.28
2023-01-19T18:36:32.067Z,83.31
2023-01-19T18:39:00.638Z,83.31
2023-01-19T18:41:29.919Z,84.42
2023-01-19T18:44:01.397Z,84.73
2023-01-19T18:46:29.921Z,85.09
2023-01-19T18:48:58.449Z,85.75
2023-01-19T18:51:26.987Z,86.31
2023-01-19T18:53:55.528Z,87.57
2023-01-19T18:56:23.998Z,87.72
2023-01-19T18:58:53.198Z,87.92
2023-01-19T19:01:33.114Z,89.48
2023-01-19T19:04:01.927Z,89.86
2023-01-19T19:06:30.505Z,89.63
2023-01-19T19:09:00.220Z,90.75
2023-01-19T19:11:29.422Z,91.25
2023-01-19T19:14:03.313Z,91.18
2023-01-19T19:16:34.984Z,91.69
2023-01-19T19:19:04.317Z,92.18
2023-01-19T19:21:32.883Z,92.12
2023-01-19T19:24:01.496Z,92.73
2023-01-19T19:26:30.777Z,92.54
2023-01-19T19:28:59.347Z,93.07
2023-01-19T19:31:28.136Z,93.69
2023-01-19T19:33:58.118Z,93.50
2023-01-19T19:36:28.411Z,93.86
2023-01-19T19:38:57.097Z,94.35
2023-01-19T19:41:27.648Z,94.26
2023-01-19T19:43:56.910Z,94.48
2023-01-19T19:46:25.881Z,94.71
2023-01-19T19:48:55.163Z,94.95
2023-01-19T19:51:29.505Z,95.27
2023-01-19T19:54:00.282Z,94.85
2023-01-19T19:56:32.306Z,95.06
2023-01-19T19:59:01.108Z,95.38
2023-01-19T20:01:33.750Z,95.46
2023-01-19T20:04:09.769Z,95.64
2023-01-19T20:06:44.577Z,95.54
2023-01-19T20:09:14.300Z,95.36
2023-01-19T20:11:46.730Z,95.42
2023-01-19T20:14:16.526Z,95.47
2023-01-19T20:16:45.766Z,95.05
2023-01-19T20:19:14.363Z,95.03
2023-01-19T20:21:43.756Z,95.23
2023-01-19T20:24:21.005Z,94.92
2023-01-19T20:26:52.973Z,95.23
2023-01-19T20:29:21.822Z,94.81
2023-01-19T20:31:56.441Z,95.25
2023-01-19T20:34:32.893Z,95.03
2023-01-19T20:37:02.167Z,95.17
2023-01-19T20:39:33.328Z,94.91
2023-01-19T20:42:02.351Z,95.26
2023-01-19T20:44:31.316Z,94.93
2023-01-19T20:47:00.294Z,95.30
2023-01-19T20:49:28.760Z,95.19
2023-01-19T20:51:57.359Z,95.01
2023-01-19T20:54:30.324Z,94.83
2023-01-19T20:56:59.796Z,94.41
2023-01-19T20:59:28.400Z,94.69
2023-01-19T21:01:57.133Z,94.35
2023-01-19T21:04:25.741Z,94.81
2023-01-19T21:06:54.286Z,94.69
2023-01-19T21:09:23.000Z,94.75
2023-01-19T21:11:51.589Z,94.57
2023-01-19T21:14:20.148Z,94.77
2023-01-19T21:16:48.727Z,94.53
2023-01-19T21:19:17.455Z,94.88
2023-01-19T21:21:46.154Z,94.83
2023-01-19T21:24:14.655Z,94.53
2023-01-19T21:26:43.200Z,94.71
2023-01-19T21:29:13.382Z,94.93
2023-01-19T21:31:43.139Z,94.89
2023-01-19T21:34:11.886Z,94.95
2023-01-19T21:36:40.403Z,95.11
2023-01-19T21:39:09.189Z,95.34
2023-01-19T21:41:39.861Z,95.18
2023-01-19T21:44:08.375Z,95.06
2023-01-19T21:46:36.834Z,95.70
2023-01-19T21:49:08.169Z,95.65
2023-01-19T21:51:38.225Z,95.64
2023-01-19T21:54:07.937Z,94.92
2023-01-19T21:56:37.986Z,95.20
2023-01-19T21:59:07.603Z,95.23
2023-01-19T22:01:36.660Z,95.16
2023-01-19T22:04:05.375Z,95.12
2023-01-19T22:06:34.286Z,94.48
2023-01-19T22:09:02.923Z,94.66
2023-01-19T22:11:31.900Z,94.94
2023-01-19T22:14:01.001Z,95.04
2023-01-19T22:16:30.842Z,95.09
2023-01-19T22:19:02.389Z,94.91
2023-01-19T22:21:36.389Z,95.19
2023-01-19T22:24:06.433Z,94.92
2023-01-19T22:26:35.380Z,94.91
2023-01-19T22:29:05.540Z,94.63
2023-01-19T22:31:34.241Z,94.27
2023-01-19T22:34:02.896Z,94.30
2023-01-19T22:36:34.537Z,94.18
2023-01-19T22:39:11.945Z,93.80
2023-01-19T22:41:46.479Z,93.26
2023-01-19T22:44:20.790Z,93.17
2023-01-19T22:46:51.311Z,93.24
2023-01-19T22:49:20.168Z,92.87
2023-01-19T22:51:48.843Z,93.27
2023-01-19T22:54:17.505Z,92.70
2023-01-19T22:56:46.066Z,93.52
2023-01-19T22:59:14.529Z,93.48
2023-01-19T23:01:45.688Z,93.31
2023-01-19T23:04:16.703Z,92.61
2023-01-19T23:06:46.946Z,93.01
2023-01-19T23:09:16.089Z,92.92
2023-01-19T23:11:50.520Z,92.81
2023-01-19T23:14:22.213Z,92.97
2023-01-19T23:16:50.639Z,92.99
2023-01-19T23:19:19.665Z,93.18
2023-01-19T23:21:48.356Z,92.86
2023-01-19T23:24:16.986Z,93.04
2023-01-19T23:26:45.415Z,92.52
2023-01-19T23:29:16.028Z,92.95
2023-01-19T23:31:48.314Z,92.32
2023-01-19T23:34:17.215Z,92.52
2023-01-19T23:36:45.888Z,92.33
2023-01-19T23:39:23.814Z,92.88
2023-01-19T23:41:52.530Z,92.35
2023-01-19T23:44:21.042Z,92.58
2023-01-19T23:46:49.573Z,92.36
2023-01-19T23:49:18.162Z,92.43
2023-01-19T23:51:46.666Z,92.38
2023-01-19T23:54:15.116Z,92.42
2023-01-19T23:56:43.665Z,92.27
2023-01-19T23:59:15.072Z,91.91
